createdAt,value
2019-05-16T00:01:00.034Z,49
2019-05-16T00:02:02.666Z,48
2019-05-16T00:03:04.783Z,49
2019-05-16T00:04:09.549Z,48
2019-05-16T00:05:11.627Z,48
2019-05-16T00:06:13.781Z,48
2019-05-16T00:07:15.872Z,48
2019-05-16T00:08:18.706Z,48
2019-05-16T00:09:20.796Z,48
2019-05-16T00:10:22.895Z,48
2019-05-16T00:11:25.465Z,48
2019-05-16T00:12:30.215Z,48
2019-05-16T00:13:32.342Z,48
2019-05-16T00:14:34.420Z,48
2019-05-16T00:15:38.591Z,48
2019-05-16T00:16:40.672Z,48
2019-05-16T00:17:42.782Z,48
2019-05-16T00:18:45.178Z,48
2019-05-16T00:19:49.807Z,48
2019-05-16T00:20:51.948Z,48
2019-05-16T00:21:54.312Z,48
2019-05-16T00:22:59.569Z,48
2019-05-16T00:24:01.663Z,48
2019-05-16T00:25:03.765Z,48
2019-05-16T00:26:08.230Z,47
2019-05-16T00:27:10.619Z,47
2019-05-16T00:28:13.063Z,47
2019-05-16T00:29:15.480Z,47
2019-05-16T00:30:20.496Z,47
2019-05-16T00:31:22.716Z,48
2019-05-16T00:32:25.274Z,48
2019-05-16T00:33:29.526Z,48
2019-05-16T00:34:31.658Z,47
2019-05-16T00:35:33.842Z,47
2019-05-16T00:36:38.782Z,47
2019-05-16T00:37:40.950Z,47
2019-05-16T00:38:43.154Z,47
2019-05-16T00:39:45.324Z,47
2019-05-16T00:40:49.606Z,47
2019-05-16T00:41:52.299Z,47
2019-05-16T00:42:54.488Z,47
2019-05-16T00:43:58.591Z,47
2019-05-16T00:45:00.724Z,47
2019-05-16T00:46:03.417Z,47
2019-05-16T00:47:05.618Z,47
2019-05-16T00:48:10.005Z,47
2019-05-16T00:49:12.267Z,47
2019-05-16T00:50:14.804Z,47
2019-05-16T00:51:19.150Z,47
2019-05-16T00:52:21.805Z,47
2019-05-16T00:53:24.293Z,47
2019-05-16T00:54:28.605Z,47
2019-05-16T00:55:30.880Z,47
2019-05-16T00:56:33.098Z,47
2019-05-16T00:57:35.317Z,47
2019-05-16T00:58:38.892Z,47
2019-05-16T00:59:41.018Z,47
2019-05-16T01:00:43.149Z,47
2019-05-16T01:01:49.680Z,47
2019-05-16T01:02:52.466Z,47
2019-05-16T01:03:54.554Z,47
2019-05-16T01:04:59.120Z,47
2019-05-16T01:06:01.831Z,47
2019-05-16T01:07:04.908Z,46
2019-05-16T01:08:08.763Z,46
2019-05-16T01:09:10.860Z,47
2019-05-16T01:10:12.987Z,46
2019-05-16T01:11:15.065Z,46
2019-05-16T01:12:18.711Z,47
2019-05-16T01:13:20.835Z,46
2019-05-16T01:14:23.299Z,47
2019-05-16T01:15:25.445Z,46
2019-05-16T01:16:28.517Z,46
2019-05-16T01:17:30.593Z,46
2019-05-16T01:18:32.718Z,47
2019-05-16T01:19:34.822Z,47
2019-05-16T01:20:39.713Z,47
2019-05-16T01:21:41.882Z,47
2019-05-16T01:22:44.310Z,47
2019-05-16T01:23:49.254Z,47
2019-05-16T01:24:51.695Z,47
2019-05-16T01:25:54.399Z,47
2019-05-16T01:26:58.698Z,47
2019-05-16T01:28:01.336Z,47
2019-05-16T01:29:03.671Z,47
2019-05-16T01:30:06.019Z,47
2019-05-16T01:31:09.498Z,47
2019-05-16T01:32:11.636Z,47
2019-05-16T01:33:13.992Z,47
2019-05-16T01:34:18.878Z,47
2019-05-16T01:35:21.719Z,47
2019-05-16T01:36:41.432Z,47
2019-05-16T01:37:44.651Z,47
2019-05-16T01:38:49.360Z,47
2019-05-16T01:39:51.714Z,48
2019-05-16T01:40:54.749Z,48
2019-05-16T01:42:00.055Z,47
2019-05-16T01:43:02.727Z,47
2019-05-16T01:44:07.692Z,48
2019-05-16T01:45:10.855Z,48
2019-05-16T01:46:14.061Z,48
2019-05-16T01:47:19.324Z,48
2019-05-16T01:48:22.000Z,48
2019-05-16T01:49:24.245Z,48
2019-05-16T01:50:29.088Z,48
2019-05-16T01:51:31.977Z,48
2019-05-16T01:52:34.408Z,48
2019-05-16T01:53:36.641Z,48
2019-05-16T01:54:41.405Z,49
2019-05-16T01:55:44.237Z,48
2019-05-16T01:56:48.961Z,48
2019-05-16T01:57:51.852Z,48
2019-05-16T01:58:55.079Z,49
2019-05-16T02:00:00.249Z,49
2019-05-16T02:01:19.664Z,49
2019-05-16T02:02:22.215Z,48
2019-05-16T02:03:24.497Z,48
2019-05-16T02:04:29.334Z,48
2019-05-16T02:05:32.610Z,48
2019-05-16T02:06:58.642Z,48
2019-05-16T02:08:02.010Z,48
2019-05-16T02:09:04.607Z,48
2019-05-16T02:10:09.779Z,48
2019-05-16T02:11:12.209Z,48
2019-05-16T02:12:15.230Z,48
2019-05-16T02:13:18.960Z,48
2019-05-16T02:14:21.034Z,48
2019-05-16T02:15:23.191Z,48
2019-05-16T02:16:25.283Z,47
2019-05-16T02:17:29.804Z,47
2019-05-16T02:18:32.278Z,48
2019-05-16T02:19:34.363Z,48
2019-05-16T02:20:39.455Z,48
2019-05-16T02:21:41.828Z,48
2019-05-16T02:22:44.236Z,48
2019-05-16T02:23:48.930Z,48
2019-05-16T02:24:53.523Z,48
2019-05-16T02:25:58.391Z,47
2019-05-16T02:27:00.885Z,47
2019-05-16T02:28:03.138Z,47
2019-05-16T02:29:05.329Z,47
2019-05-16T02:30:11.896Z,46
2019-05-16T02:31:16.514Z,46
2019-05-16T02:32:22.911Z,46
2019-05-16T02:33:25.886Z,46
2019-05-16T02:34:31.413Z,46
2019-05-16T02:35:33.825Z,46
2019-05-16T02:36:35.945Z,46
2019-05-16T02:37:43.406Z,46
2019-05-16T02:38:45.602Z,46
2019-05-16T02:39:54.870Z,46
2019-05-16T02:40:57.849Z,46
2019-05-16T02:42:02.384Z,46
2019-05-16T02:43:04.861Z,45
2019-05-16T02:44:07.388Z,45
2019-05-16T02:45:12.143Z,45
2019-05-16T02:46:14.570Z,46
2019-05-16T02:47:20.693Z,46
2019-05-16T02:48:23.662Z,46
2019-05-16T02:49:26.137Z,45
2019-05-16T02:50:32.978Z,45
2019-05-16T02:51:35.532Z,45
2019-05-16T02:52:41.986Z,46
2019-05-16T02:53:44.227Z,46
2019-05-16T02:54:47.145Z,46
2019-05-16T02:55:53.281Z,46
2019-05-16T02:56:55.738Z,46
2019-05-16T02:58:01.894Z,45
2019-05-16T02:59:04.366Z,46
2019-05-16T03:00:06.590Z,46
2019-05-16T03:01:11.815Z,45
2019-05-16T03:02:14.061Z,46
2019-05-16T03:03:16.226Z,45
2019-05-16T03:04:21.716Z,45
2019-05-16T03:05:24.250Z,45
2019-05-16T03:06:26.809Z,45
2019-05-16T03:07:48.125Z,45
2019-05-16T03:08:54.077Z,45
2019-05-16T03:09:56.519Z,45
2019-05-16T03:11:01.974Z,45
2019-05-16T03:12:04.525Z,45
2019-05-16T03:13:07.310Z,45
2019-05-16T03:14:12.116Z,46
2019-05-16T03:15:14.531Z,46
2019-05-16T03:16:17.006Z,45
2019-05-16T03:17:22.710Z,46
2019-05-16T03:18:24.832Z,46
2019-05-16T03:19:30.917Z,46
2019-05-16T03:20:33.875Z,46
2019-05-16T03:21:36.358Z,46
2019-05-16T03:22:42.899Z,46
2019-05-16T03:23:45.064Z,46
2019-05-16T03:24:47.471Z,46
2019-05-16T03:25:51.703Z,46
2019-05-16T03:26:54.857Z,46
2019-05-16T03:27:57.557Z,46
2019-05-16T03:29:02.309Z,47
2019-05-16T03:30:05.208Z,47
2019-05-16T03:31:14.089Z,47
2019-05-16T03:32:24.715Z,47
2019-05-16T03:34:08.006Z,47
2019-05-16T03:35:26.261Z,47
2019-05-16T03:36:35.922Z,47
2019-05-16T03:38:06.380Z,48
2019-05-16T03:39:11.824Z,48
2019-05-16T03:40:14.643Z,48
2019-05-16T03:41:16.814Z,49
2019-05-16T03:42:21.820Z,48
2019-05-16T03:43:24.308Z,48
2019-05-16T03:44:26.480Z,48
2019-05-16T03:45:33.481Z,48
2019-05-16T03:46:35.654Z,48
2019-05-16T03:47:42.220Z,48
2019-05-16T03:48:45.839Z,48
2019-05-16T03:49:51.952Z,48
2019-05-16T03:50:54.877Z,48
2019-05-16T03:52:01.160Z,48
2019-05-16T03:53:04.103Z,48
2019-05-16T03:54:06.329Z,48
2019-05-16T03:55:12.849Z,48
2019-05-16T03:56:15.439Z,48
2019-05-16T03:57:22.094Z,49
2019-05-16T03:58:26.321Z,49
2019-05-16T03:59:32.550Z,49
2019-05-16T04:00:35.993Z,50
2019-05-16T04:01:42.131Z,50
2019-05-16T04:02:47.415Z,51
2019-05-16T04:03:52.671Z,51
2019-05-16T04:04:55.740Z,52
2019-05-16T04:06:02.133Z,51
2019-05-16T04:07:07.088Z,51
2019-05-16T04:08:26.796Z,51
2019-05-16T04:09:33.535Z,52
2019-05-16T04:10:36.025Z,51
2019-05-16T04:11:43.096Z,51
2019-05-16T04:12:46.707Z,52
2019-05-16T04:13:51.996Z,52
2019-05-16T04:14:54.851Z,52
2019-05-16T04:16:02.669Z,51
2019-05-16T04:17:06.332Z,52
2019-05-16T04:18:12.643Z,52
2019-05-16T04:19:15.339Z,52
2019-05-16T04:20:23.726Z,52
2019-05-16T04:21:27.516Z,52
2019-05-16T04:22:34.909Z,52
2019-05-16T04:23:37.519Z,51
2019-05-16T04:24:43.646Z,51
2019-05-16T04:25:46.877Z,51
2019-05-16T04:26:53.415Z,51
2019-05-16T04:27:57.166Z,51
2019-05-16T04:29:02.179Z,51
2019-05-16T04:30:05.039Z,52
2019-05-16T04:31:12.670Z,52
2019-05-16T04:32:15.917Z,52
2019-05-16T04:33:24.060Z,52
2019-05-16T04:34:26.379Z,52
2019-05-16T04:35:32.501Z,52
2019-05-16T04:36:35.123Z,52
2019-05-16T04:37:43.690Z,52
2019-05-16T04:38:52.306Z,52
2019-05-16T04:39:54.735Z,53
2019-05-16T04:41:01.767Z,52
2019-05-16T04:42:05.268Z,52
2019-05-16T04:43:11.552Z,52
2019-05-16T04:44:21.834Z,52
2019-05-16T04:45:24.867Z,52
2019-05-16T04:46:31.667Z,52
2019-05-16T04:47:34.693Z,52
2019-05-16T04:48:41.401Z,52
2019-05-16T04:49:44.162Z,51
2019-05-16T04:50:46.719Z,51
2019-05-16T04:51:52.936Z,52
2019-05-16T04:52:55.890Z,52
2019-05-16T04:54:13.017Z,52
2019-05-16T04:55:16.706Z,51
2019-05-16T04:56:24.507Z,51
2019-05-16T04:57:31.596Z,51
2019-05-16T04:58:35.982Z,50
2019-05-16T04:59:42.811Z,51
2019-05-16T05:00:51.493Z,51
2019-05-16T05:01:56.296Z,51
2019-05-16T05:03:02.632Z,51
2019-05-16T05:04:16.414Z,51
2019-05-16T05:05:22.714Z,52
2019-05-16T05:06:25.362Z,51
2019-05-16T05:07:32.002Z,52
2019-05-16T05:09:04.387Z,52
2019-05-16T05:10:07.427Z,52
2019-05-16T05:11:11.951Z,52
2019-05-16T05:12:14.684Z,52
2019-05-16T05:13:17.441Z,52
2019-05-16T05:14:22.422Z,52
2019-05-16T05:15:24.564Z,53
2019-05-16T05:16:26.648Z,53
2019-05-16T05:17:31.478Z,53
2019-05-16T05:18:33.567Z,53
2019-05-16T05:19:36.335Z,53
2019-05-16T05:20:41.757Z,53
2019-05-16T05:21:44.183Z,53
2019-05-16T05:22:46.614Z,53
2019-05-16T05:23:51.487Z,53
2019-05-16T05:24:53.626Z,54
2019-05-16T05:25:55.696Z,53
2019-05-16T05:27:00.717Z,52
2019-05-16T05:28:03.231Z,52
2019-05-16T05:29:05.326Z,52
2019-05-16T05:30:10.268Z,53
2019-05-16T05:31:13.506Z,53
2019-05-16T05:32:16.245Z,53
2019-05-16T05:33:21.862Z,53
2019-05-16T05:34:24.283Z,54
2019-05-16T05:35:30.931Z,53
2019-05-16T05:36:33.457Z,53
2019-05-16T05:37:35.593Z,53
2019-05-16T05:38:40.752Z,53
2019-05-16T05:39:42.942Z,53
2019-05-16T05:40:45.019Z,52
2019-05-16T05:41:47.099Z,52
2019-05-16T05:42:51.759Z,52
2019-05-16T05:43:55.384Z,52
2019-05-16T05:45:00.136Z,52
2019-05-16T05:46:02.652Z,52
2019-05-16T05:47:04.802Z,52
2019-05-16T05:48:07.549Z,52
2019-05-16T05:49:12.830Z,53
2019-05-16T05:50:14.972Z,52
2019-05-16T05:51:17.066Z,53
2019-05-16T05:52:21.992Z,52
2019-05-16T05:53:24.350Z,52
2019-05-16T05:54:26.431Z,52
2019-05-16T05:55:32.779Z,52
2019-05-16T05:56:34.873Z,52
2019-05-16T05:57:37.013Z,52
2019-05-16T05:58:41.855Z,52
2019-05-16T05:59:45.338Z,51
2019-05-16T06:00:51.240Z,52
2019-05-16T06:01:54.504Z,52
2019-05-16T06:02:56.665Z,52
2019-05-16T06:04:00.655Z,52
2019-05-16T06:05:03.458Z,52
2019-05-16T06:06:05.838Z,52
2019-05-16T06:07:10.728Z,52
2019-05-16T06:08:13.102Z,52
2019-05-16T06:09:33.806Z,52
2019-05-16T06:10:36.128Z,53
2019-05-16T06:11:40.516Z,53
2019-05-16T06:12:44.255Z,53
2019-05-16T06:13:46.331Z,54
2019-05-16T06:14:51.311Z,53
2019-05-16T06:15:53.395Z,53
2019-05-16T06:16:55.799Z,54
2019-05-16T06:18:01.303Z,53
2019-05-16T06:19:03.404Z,54
2019-05-16T06:20:06.885Z,54
2019-05-16T06:21:12.340Z,54
2019-05-16T06:22:14.784Z,54
2019-05-16T06:23:16.871Z,54
2019-05-16T06:24:21.311Z,55
2019-05-16T06:25:24.590Z,55
2019-05-16T06:26:27.339Z,55
2019-05-16T06:27:31.531Z,56
2019-05-16T06:28:33.633Z,56
2019-05-16T06:29:35.752Z,57
2019-05-16T06:30:40.906Z,57
2019-05-16T06:31:42.999Z,58
2019-05-16T06:32:45.076Z,59
2019-05-16T06:33:47.174Z,58
2019-05-16T06:34:51.857Z,59
2019-05-16T06:35:53.945Z,59
2019-05-16T06:36:56.067Z,58
2019-05-16T06:38:00.930Z,59
2019-05-16T06:39:03.002Z,59
2019-05-16T06:40:05.125Z,59
2019-05-16T06:41:07.211Z,59
2019-05-16T06:42:10.803Z,60
2019-05-16T06:43:13.511Z,59
2019-05-16T06:44:15.946Z,59
2019-05-16T06:45:20.704Z,59
2019-05-16T06:46:22.775Z,59
2019-05-16T06:47:25.197Z,59
2019-05-16T06:48:27.279Z,59
2019-05-16T06:49:31.272Z,59
2019-05-16T06:50:33.369Z,60
2019-05-16T06:51:35.502Z,60
2019-05-16T06:52:37.853Z,60
2019-05-16T06:53:41.329Z,60
2019-05-16T06:54:43.460Z,59
2019-05-16T06:55:45.530Z,60
2019-05-16T06:56:47.670Z,60
2019-05-16T06:57:52.835Z,60
2019-05-16T06:58:54.921Z,60
2019-05-16T06:59:57.397Z,60
2019-05-16T07:01:04.719Z,60
2019-05-16T07:02:07.408Z,60
2019-05-16T07:03:13.669Z,60
2019-05-16T07:04:15.801Z,60
2019-05-16T07:05:20.524Z,61
2019-05-16T07:07:03.955Z,61
2019-05-16T07:08:06.282Z,62
2019-05-16T07:09:12.120Z,62
2019-05-16T07:10:14.486Z,62
2019-05-16T07:11:16.872Z,62
2019-05-16T07:12:21.150Z,62
2019-05-16T07:13:23.790Z,62
2019-05-16T07:14:31.982Z,62
2019-05-16T07:15:34.283Z,62
2019-05-16T07:16:37.257Z,62
2019-05-16T07:17:42.722Z,62
2019-05-16T07:18:44.968Z,62
2019-05-16T07:19:50.449Z,62
2019-05-16T07:20:53.285Z,62
2019-05-16T07:21:55.549Z,63
2019-05-16T07:22:57.753Z,63
2019-05-16T07:24:01.068Z,62
2019-05-16T07:25:03.664Z,62
2019-05-16T07:26:05.849Z,62
2019-05-16T07:27:13.478Z,62
2019-05-16T07:28:15.684Z,61
2019-05-16T07:29:21.012Z,62
2019-05-16T07:30:23.243Z,62
2019-05-16T07:31:25.489Z,62
2019-05-16T07:32:30.973Z,62
2019-05-16T07:33:33.155Z,62
2019-05-16T07:34:35.412Z,61
2019-05-16T07:35:40.018Z,62
2019-05-16T07:36:42.402Z,62
2019-05-16T07:37:44.945Z,61
2019-05-16T07:38:47.857Z,62
2019-05-16T07:39:52.936Z,61
2019-05-16T07:40:55.517Z,62
2019-05-16T07:42:00.728Z,62
2019-05-16T07:43:02.934Z,61
2019-05-16T07:44:05.124Z,61
2019-05-16T07:45:09.987Z,61
2019-05-16T07:46:13.164Z,61
2019-05-16T07:47:15.750Z,61
2019-05-16T07:48:22.541Z,60
2019-05-16T07:49:24.758Z,60
2019-05-16T07:50:29.867Z,60
2019-05-16T07:51:32.225Z,60
2019-05-16T07:52:40.644Z,60
2019-05-16T07:53:42.884Z,61
2019-05-16T07:54:45.437Z,60
2019-05-16T07:55:47.625Z,61
2019-05-16T07:57:23.371Z,60
2019-05-16T07:58:25.529Z,61
2019-05-16T07:59:30.160Z,60
2019-05-16T08:01:13.060Z,61
2019-05-16T08:02:15.520Z,61
2019-05-16T08:03:21.062Z,60
2019-05-16T08:04:23.294Z,59
2019-05-16T08:05:25.537Z,60
2019-05-16T08:06:27.728Z,60
2019-05-16T08:07:34.400Z,60
2019-05-16T08:08:36.598Z,61
2019-05-16T08:09:40.689Z,59
2019-05-16T08:10:52.043Z,60
2019-05-16T08:11:54.201Z,58
2019-05-16T08:12:56.396Z,58
2019-05-16T08:14:01.588Z,59
2019-05-16T08:15:03.780Z,58
2019-05-16T08:16:05.998Z,58
2019-05-16T08:17:11.636Z,58
2019-05-16T08:18:13.834Z,58
2019-05-16T08:19:16.345Z,57
2019-05-16T08:20:22.100Z,58
2019-05-16T08:21:31.513Z,57
2019-05-16T08:22:33.750Z,58
2019-05-16T08:23:36.013Z,57
2019-05-16T08:24:41.072Z,55
2019-05-16T08:25:43.308Z,56
2019-05-16T08:26:45.598Z,57
2019-05-16T08:27:47.878Z,57
2019-05-16T08:32:53.540Z,56
2019-05-16T08:33:56.802Z,56
2019-05-16T08:35:02.899Z,56
2019-05-16T08:38:13.475Z,56
2019-05-16T08:39:15.769Z,56
2019-05-16T08:40:22.904Z,57
2019-05-16T08:41:25.359Z,56
2019-05-16T08:42:27.536Z,56
2019-05-16T08:43:33.426Z,57
2019-05-16T08:44:36.260Z,57
2019-05-16T08:45:42.611Z,57
2019-05-16T08:46:44.933Z,57
2019-05-16T08:47:55.208Z,57
2019-05-16T08:49:01.333Z,57
2019-05-16T08:50:03.878Z,57
2019-05-16T08:51:06.120Z,58
2019-05-16T08:52:12.495Z,58
2019-05-16T08:53:15.103Z,57
2019-05-16T08:54:20.618Z,57
2019-05-16T08:55:24.856Z,58
2019-05-16T08:56:32.063Z,58
2019-05-16T08:57:35.166Z,57
2019-05-16T08:58:41.522Z,58
2019-05-16T08:59:43.852Z,58
2019-05-16T09:00:47.232Z,58
2019-05-16T09:02:04.918Z,58
2019-05-16T09:03:07.588Z,58
2019-05-16T09:04:13.734Z,58
2019-05-16T09:05:17.196Z,58
2019-05-16T09:06:24.167Z,58
2019-05-16T09:07:31.548Z,59
2019-05-16T09:08:34.465Z,60
2019-05-16T09:09:53.513Z,60
2019-05-16T09:11:49.553Z,60
2019-05-16T09:12:52.277Z,60
2019-05-16T09:13:58.417Z,61
2019-05-16T09:15:02.154Z,62
2019-05-16T09:16:09.498Z,62
2019-05-16T09:17:13.915Z,62
2019-05-16T09:18:21.416Z,62
2019-05-16T09:19:27.345Z,62
2019-05-16T09:20:31.724Z,62
2019-05-16T09:21:38.053Z,62
2019-05-16T09:22:42.774Z,63
2019-05-16T09:23:48.445Z,63
2019-05-16T09:24:51.939Z,63
2019-05-16T09:25:59.042Z,64
2019-05-16T09:27:10.707Z,65
2019-05-16T09:28:18.683Z,65
2019-05-16T09:29:22.668Z,65
2019-05-16T09:30:29.707Z,65
2019-05-16T09:31:34.121Z,66
2019-05-16T09:32:44.167Z,65
2019-05-16T09:33:52.202Z,66
2019-05-16T09:34:58.992Z,65
2019-05-16T09:36:02.904Z,64
2019-05-16T09:37:09.811Z,66
2019-05-16T09:38:13.607Z,65
2019-05-16T09:39:22.956Z,66
2019-05-16T09:40:30.152Z,66
2019-05-16T09:42:00.194Z,67
2019-05-16T09:43:04.312Z,66
2019-05-16T09:44:11.781Z,65
2019-05-16T09:45:19.010Z,65
2019-05-16T09:46:22.942Z,66
2019-05-16T09:47:30.215Z,66
2019-05-16T09:48:33.350Z,66
2019-05-16T09:49:38.487Z,66
2019-05-16T09:50:41.424Z,66
2019-05-16T09:51:47.625Z,66
2019-05-16T09:52:51.020Z,66
2019-05-16T09:53:57.169Z,66
2019-05-16T09:55:00.919Z,66
2019-05-16T09:56:07.512Z,66
2019-05-16T09:57:12.049Z,66
2019-05-16T09:58:19.171Z,67
2019-05-16T09:59:23.360Z,66
2019-05-16T10:00:28.570Z,66
2019-05-16T10:01:32.437Z,66
2019-05-16T10:02:38.646Z,66
2019-05-16T10:03:42.528Z,67
2019-05-16T10:04:49.240Z,66
2019-05-16T10:05:53.586Z,67
2019-05-16T10:06:59.902Z,66
2019-05-16T10:08:03.521Z,66
2019-05-16T10:09:08.299Z,66
2019-05-16T10:10:12.799Z,66
2019-05-16T10:11:20.201Z,66
2019-05-16T10:12:27.563Z,66
2019-05-16T10:13:32.610Z,65
2019-05-16T10:14:39.377Z,66
2019-05-16T10:15:43.310Z,66
2019-05-16T10:16:49.198Z,66
2019-05-16T10:17:53.448Z,66
2019-05-16T10:18:58.889Z,66
2019-05-16T10:20:03.505Z,67
2019-05-16T10:21:10.877Z,66
2019-05-16T10:22:18.560Z,66
2019-05-16T10:23:23.024Z,66
2019-05-16T10:24:29.514Z,65
2019-05-16T10:25:33.782Z,66
2019-05-16T10:26:38.784Z,66
2019-05-16T10:27:42.111Z,66
2019-05-16T10:28:48.338Z,65
2019-05-16T10:29:52.538Z,66
2019-05-16T10:30:58.194Z,66
2019-05-16T10:32:01.658Z,67
2019-05-16T10:33:07.728Z,66
2019-05-16T10:34:12.344Z,65
2019-05-16T10:35:16.478Z,66
2019-05-16T10:36:23.394Z,66
2019-05-16T10:37:28.186Z,66
2019-05-16T10:38:31.385Z,66
2019-05-16T10:39:37.254Z,66
2019-05-16T10:40:41.352Z,66
2019-05-16T10:41:48.741Z,66
2019-05-16T10:42:52.473Z,66
2019-05-16T10:43:58.417Z,66
2019-05-16T10:45:01.879Z,66
2019-05-16T10:46:08.917Z,66
2019-05-16T10:47:13.546Z,66
2019-05-16T10:48:19.984Z,67
2019-05-16T10:49:43.058Z,67
2019-05-16T10:50:49.453Z,67
2019-05-16T10:51:53.511Z,68
2019-05-16T10:54:17.757Z,68
2019-05-16T10:55:23.396Z,67
2019-05-16T10:56:27.209Z,68
2019-05-16T10:57:32.705Z,68
2019-05-16T11:00:27.216Z,68
2019-05-16T11:02:30.298Z,68
2019-05-16T11:03:34.060Z,68
2019-05-16T11:05:36.949Z,68
2019-05-16T11:06:42.989Z,69
2019-05-16T11:07:57.779Z,69
2019-05-16T11:09:01.385Z,69
2019-05-16T11:10:08.648Z,69
2019-05-16T11:11:13.061Z,69
2019-05-16T11:12:23.145Z,69
2019-05-16T11:13:54.943Z,69
2019-05-16T11:14:58.559Z,69
2019-05-16T11:16:02.439Z,69
2019-05-16T11:17:19.863Z,69
2019-05-16T11:18:26.885Z,69
2019-05-16T11:19:31.220Z,69
2019-05-16T11:20:37.861Z,68
2019-05-16T11:21:41.493Z,69
2019-05-16T11:22:48.960Z,69
2019-05-16T11:23:52.975Z,69
2019-05-16T11:24:58.734Z,69
2019-05-16T11:26:03.032Z,69
2019-05-16T11:27:09.508Z,69
2019-05-16T11:28:14.335Z,69
2019-05-16T11:29:18.448Z,69
2019-05-16T11:30:22.924Z,69
2019-05-16T11:31:29.259Z,68
2019-05-16T11:32:33.620Z,68
2019-05-16T11:33:39.222Z,68
2019-05-16T11:34:43.887Z,68
2019-05-16T11:35:50.198Z,68
2019-05-16T11:36:58.515Z,68
2019-05-16T11:38:06.850Z,68
2019-05-16T11:39:11.164Z,67
2019-05-16T11:40:17.579Z,68
2019-05-16T11:41:22.500Z,67
2019-05-16T11:42:29.533Z,67
2019-05-16T11:43:33.555Z,67
2019-05-16T11:44:39.755Z,66
2019-05-16T11:45:44.147Z,66
2019-05-16T11:46:51.867Z,66
2019-05-16T11:47:58.279Z,65
2019-05-16T11:49:02.215Z,66
2019-05-16T11:50:09.232Z,64
2019-05-16T11:51:13.310Z,66
2019-05-16T11:52:19.593Z,66
2019-05-16T11:53:27.936Z,65
2019-05-16T11:54:32.048Z,65
2019-05-16T11:56:03.008Z,65
2019-05-16T11:57:09.220Z,64
2019-05-16T11:58:13.787Z,63
2019-05-16T11:59:18.138Z,63
2019-05-16T12:00:22.321Z,63
2019-05-16T12:01:29.772Z,63
2019-05-16T12:02:37.348Z,63
2019-05-16T12:03:48.593Z,63
2019-05-16T12:04:52.823Z,63
2019-05-16T12:05:59.853Z,63
2019-05-16T12:07:03.654Z,63
2019-05-16T12:08:09.707Z,63
2019-05-16T12:09:13.779Z,63
2019-05-16T12:10:18.414Z,62
2019-05-16T12:11:21.751Z,63
2019-05-16T12:12:29.021Z,62
2019-05-16T12:13:38.883Z,63
2019-05-16T12:14:43.895Z,63
2019-05-16T12:15:47.984Z,64
2019-05-16T12:16:52.905Z,63
2019-05-16T12:18:09.826Z,64
2019-05-16T12:19:13.981Z,62
2019-05-16T12:20:20.903Z,62
2019-05-16T12:21:27.280Z,62
2019-05-16T12:22:32.287Z,63
2019-05-16T12:23:39.573Z,62
2019-05-16T12:24:43.006Z,62
2019-05-16T12:25:49.379Z,62
2019-05-16T12:26:53.821Z,62
2019-05-16T12:27:59.341Z,62
2019-05-16T12:29:02.453Z,62
2019-05-16T12:30:18.868Z,62
2019-05-16T12:31:25.013Z,62
2019-05-16T12:32:31.235Z,63
2019-05-16T12:33:40.151Z,61
2019-05-16T12:34:47.874Z,61
2019-05-16T12:35:52.944Z,62
2019-05-16T12:36:59.288Z,62
2019-05-16T12:38:07.763Z,62
2019-05-16T12:39:13.985Z,63
2019-05-16T12:40:22.580Z,62
2019-05-16T12:41:31.962Z,62
2019-05-16T12:42:38.533Z,62
2019-05-16T12:43:58.558Z,62
2019-05-16T12:45:02.849Z,62
2019-05-16T12:46:09.610Z,62
2019-05-16T12:47:14.221Z,63
2019-05-16T12:48:22.829Z,62
2019-05-16T12:49:28.114Z,62
2019-05-16T12:50:34.605Z,62
2019-05-16T12:51:42.730Z,62
2019-05-16T12:52:49.489Z,62
2019-05-16T12:53:57.386Z,62
2019-05-16T12:55:03.044Z,61
2019-05-16T12:56:08.704Z,62
2019-05-16T12:57:12.856Z,62
2019-05-16T12:58:43.893Z,62
2019-05-16T12:59:56.895Z,62
2019-05-16T13:01:00.375Z,62
2019-05-16T13:02:08.566Z,62
2019-05-16T13:03:13.819Z,62
2019-05-16T13:04:21.561Z,62
2019-05-16T13:05:28.717Z,61
2019-05-16T13:06:33.608Z,61
2019-05-16T13:07:39.589Z,60
2019-05-16T13:08:47.321Z,61
2019-05-16T13:09:52.300Z,60
2019-05-16T13:11:00.422Z,60
2019-05-16T13:12:09.172Z,60
2019-05-16T13:13:13.613Z,59
2019-05-16T13:14:18.514Z,59
2019-05-16T13:15:23.263Z,59
2019-05-16T13:16:30.843Z,60
2019-05-16T13:17:38.541Z,60
2019-05-16T13:18:44.588Z,60
2019-05-16T13:19:52.350Z,59
2019-05-16T13:21:00.164Z,59
2019-05-16T13:22:09.315Z,60
2019-05-16T13:23:21.392Z,60
2019-05-16T13:24:31.086Z,61
2019-05-16T13:25:39.758Z,61
2019-05-16T13:26:47.494Z,61
2019-05-16T13:27:53.455Z,61
2019-05-16T13:29:00.990Z,62
2019-05-16T13:30:09.746Z,62
2019-05-16T13:31:18.515Z,62
2019-05-16T13:32:23.269Z,62
2019-05-16T13:33:29.559Z,62
2019-05-16T13:34:39.254Z,62
2019-05-16T13:35:47.946Z,63
2019-05-16T13:36:53.666Z,63
2019-05-16T13:38:01.080Z,63
2019-05-16T13:39:09.795Z,64
2019-05-16T13:40:13.808Z,63
2019-05-16T13:41:21.951Z,63
2019-05-16T13:42:30.414Z,64
2019-05-16T13:43:38.097Z,65
2019-05-16T13:44:42.107Z,66
2019-05-16T13:45:48.226Z,65
2019-05-16T13:46:58.184Z,65
2019-05-16T13:48:07.776Z,65
2019-05-16T13:49:19.290Z,65
2019-05-16T13:50:29.797Z,65
2019-05-16T13:51:37.197Z,66
2019-05-16T13:52:41.043Z,66
2019-05-16T13:53:48.494Z,66
2019-05-16T13:54:56.351Z,66
2019-05-16T13:56:17.318Z,66
2019-05-16T13:57:22.055Z,66
2019-05-16T13:58:29.490Z,66
2019-05-16T13:59:33.531Z,66
2019-05-16T14:00:42.255Z,66
2019-05-16T14:01:47.503Z,67
2019-05-16T14:02:52.904Z,68
2019-05-16T14:04:01.363Z,68
2019-05-16T14:05:10.752Z,67
2019-05-16T14:06:20.406Z,67
2019-05-16T14:07:26.796Z,68
2019-05-16T14:08:33.075Z,68
2019-05-16T14:09:40.829Z,68
2019-05-16T14:10:51.074Z,68
2019-05-16T14:11:59.995Z,68
2019-05-16T14:13:08.305Z,67
2019-05-16T14:14:13.533Z,67
2019-05-16T14:15:42.541Z,67
2019-05-16T14:16:49.712Z,67
2019-05-16T14:17:58.628Z,67
2019-05-16T14:19:07.345Z,66
2019-05-16T14:20:21.171Z,67
2019-05-16T14:21:26.528Z,67
2019-05-16T14:22:32.092Z,67
2019-05-16T14:23:41.540Z,67
2019-05-16T14:24:50.426Z,66
2019-05-16T14:25:59.507Z,66
2019-05-16T14:27:07.459Z,67
2019-05-16T14:28:11.902Z,66
2019-05-16T14:29:19.645Z,67
2019-05-16T14:30:24.190Z,66
2019-05-16T14:31:34.015Z,66
2019-05-16T14:32:52.617Z,67
2019-05-16T14:33:58.848Z,67
2019-05-16T14:35:02.608Z,67
2019-05-16T14:36:10.022Z,67
2019-05-16T14:37:18.157Z,67
2019-05-16T14:38:23.018Z,68
2019-05-16T14:39:30.776Z,67
2019-05-16T14:40:38.812Z,67
2019-05-16T14:41:48.950Z,68
2019-05-16T14:42:54.746Z,68
2019-05-16T14:44:04.168Z,69
2019-05-16T14:45:17.892Z,69
2019-05-16T14:46:23.331Z,69
2019-05-16T14:47:31.733Z,69
2019-05-16T14:48:38.557Z,69
2019-05-16T14:49:43.553Z,69
2019-05-16T14:50:49.937Z,69
2019-05-16T14:51:57.856Z,70
2019-05-16T14:53:03.289Z,69
2019-05-16T14:54:09.494Z,70
2019-05-16T14:55:13.497Z,70
2019-05-16T14:56:19.201Z,70
2019-05-16T14:57:23.748Z,70
2019-05-16T14:58:33.409Z,71
2019-05-16T14:59:39.854Z,71
2019-05-16T15:00:48.400Z,70
2019-05-16T15:01:54.582Z,69
2019-05-16T15:03:02.021Z,70
2019-05-16T15:04:10.700Z,71
2019-05-16T15:05:15.065Z,70
2019-05-16T15:06:21.527Z,71
2019-05-16T15:07:28.665Z,71
2019-05-16T15:08:32.626Z,71
2019-05-16T15:09:40.558Z,71
2019-05-16T15:10:48.127Z,70
2019-05-16T15:11:51.591Z,71
2019-05-16T15:12:58.346Z,71
2019-05-16T15:14:03.759Z,71
2019-05-16T15:15:29.403Z,71
2019-05-16T15:16:34.488Z,70
2019-05-16T15:17:39.112Z,70
2019-05-16T15:18:47.739Z,70
2019-05-16T15:19:51.810Z,70
2019-05-16T15:20:58.183Z,71
2019-05-16T15:22:07.597Z,72
2019-05-16T15:23:13.759Z,71
2019-05-16T15:24:26.665Z,70
2019-05-16T15:25:31.622Z,71
2019-05-16T15:26:38.284Z,71
2019-05-16T15:27:43.449Z,72
2019-05-16T15:28:52.623Z,72
2019-05-16T15:29:58.330Z,71
2019-05-16T15:31:00.727Z,71
2019-05-16T15:32:03.375Z,71
2019-05-16T15:33:10.093Z,71
2019-05-16T15:34:14.997Z,71
2019-05-16T15:35:19.633Z,71
2019-05-16T15:36:23.429Z,71
2019-05-16T15:37:28.677Z,71
2019-05-16T15:38:33.800Z,72
2019-05-16T15:39:39.550Z,71
2019-05-16T15:40:48.128Z,71
2019-05-16T15:41:52.902Z,71
2019-05-16T15:43:01.338Z,71
2019-05-16T15:44:08.877Z,71
2019-05-16T15:45:13.331Z,71
2019-05-16T15:46:19.667Z,72